createdAt,value
2019-04-10T00:01:23.694Z,10.70
2019-04-10T00:04:12.679Z,10.70
2019-04-10T00:10:15.952Z,10.80
2019-04-10T00:16:36.165Z,10.90
2019-04-10T00:19:45.772Z,10.90
2019-04-10T00:22:54.823Z,10.90
2019-04-10T00:25:43.891Z,10.90
2019-04-10T00:28:33.860Z,10.90
2019-04-10T00:31:43.192Z,11.00
2019-04-10T00:34:32.138Z,11.00
2019-04-10T00:37:23.978Z,10.90
2019-04-10T00:39:59.474Z,10.90
2019-04-10T00:42:41.571Z,10.90
2019-04-10T00:45:23.416Z,10.90
2019-04-10T00:48:05.797Z,10.80
2019-04-10T00:50:48.233Z,10.90
2019-04-10T00:53:30.324Z,10.90
2019-04-10T00:56:00.246Z,10.80
2019-04-10T00:58:49.202Z,10.80
2019-04-10T01:01:19.362Z,10.80
2019-04-10T01:06:57.359Z,10.90
2019-04-10T01:09:46.640Z,10.80
2019-04-10T01:12:36.304Z,10.80
2019-04-10T01:15:45.469Z,10.70
2019-04-10T01:18:35.164Z,10.60
2019-04-10T01:21:44.365Z,10.50
2019-04-10T01:24:33.579Z,10.50
2019-04-10T01:27:23.618Z,10.60
2019-04-10T01:30:32.986Z,10.60
2019-04-10T01:36:22.797Z,10.60
2019-04-10T01:39:06.140Z,10.60
2019-04-10T01:41:48.310Z,10.60
2019-04-10T01:44:30.918Z,10.50
2019-04-10T01:47:13.050Z,10.40
2019-04-10T01:49:55.760Z,10.40
2019-04-10T01:52:37.280Z,10.40
2019-04-10T01:55:20.093Z,10.40
2019-04-10T02:05:09.258Z,10.20
2019-04-10T02:08:19.033Z,10.20
2019-04-10T02:11:08.864Z,10.20
2019-04-10T02:17:08.466Z,10.40
2019-04-10T02:20:18.937Z,10.40
2019-04-10T02:26:23.051Z,10.10
2019-04-10T02:29:12.033Z,10.10
2019-04-10T02:32:02.073Z,10.00
2019-04-10T02:35:16.558Z,10.10
2019-04-10T02:38:30.537Z,10.00
2019-04-10T02:40:57.497Z,10.00
2019-04-10T02:43:39.920Z,10.00
2019-04-10T02:46:22.060Z,10.10
2019-04-10T02:49:04.678Z,10.10
2019-04-10T02:51:49.725Z,10.00
2019-04-10T02:54:33.523Z,10.10
2019-04-10T02:57:17.184Z,10.10
2019-04-10T03:00:00.902Z,10.00
2019-04-10T03:02:42.572Z,10.00
2019-04-10T03:05:27.097Z,10.10
2019-04-10T03:08:09.387Z,10.10
2019-04-10T03:10:56.813Z,10.10
2019-04-10T03:13:39.405Z,10.10
2019-04-10T03:16:21.535Z,10.10
2019-04-10T03:19:03.448Z,10.10
2019-04-10T03:21:45.366Z,10.10
2019-04-10T03:24:27.887Z,10.10
2019-04-10T03:27:10.131Z,10.00
2019-04-10T03:29:52.234Z,10.00
2019-04-10T03:32:59.704Z,9.90
2019-04-10T03:35:41.073Z,9.70
2019-04-10T03:38:23.717Z,9.60
2019-04-10T03:41:06.023Z,9.60
2019-04-10T03:43:47.621Z,9.50
2019-04-10T03:46:29.862Z,9.30
2019-04-10T03:49:11.933Z,9.30
2019-04-10T03:51:54.585Z,9.30
2019-04-10T03:54:37.980Z,9.30
2019-04-10T03:57:21.303Z,9.30
2019-04-10T04:00:03.758Z,9.30
2019-04-10T04:02:46.398Z,9.30
2019-04-10T04:05:28.811Z,9.40
2019-04-10T04:08:11.167Z,9.40
2019-04-10T04:10:53.354Z,9.30
2019-04-10T04:13:23.740Z,9.30
2019-04-10T04:16:12.938Z,9.30
2019-04-10T04:28:45.271Z,9.20
2019-04-10T04:31:34.170Z,9.20
2019-04-10T04:34:23.202Z,9.20
2019-04-10T04:37:04.787Z,9.10
2019-04-10T04:39:46.276Z,9.10
2019-04-10T04:42:28.741Z,8.90
2019-04-10T04:45:10.781Z,8.90
2019-04-10T04:47:53.938Z,8.90
2019-04-10T04:50:35.743Z,8.90
2019-04-10T04:53:18.295Z,8.90
2019-04-10T04:56:01.657Z,8.80
2019-04-10T04:58:43.553Z,8.80
2019-04-10T05:01:25.015Z,8.90
2019-04-10T05:04:06.863Z,9.00
2019-04-10T05:06:50.063Z,8.90
2019-04-10T05:09:36.923Z,8.90
2019-04-10T05:12:16.310Z,8.80
2019-04-10T05:14:58.845Z,8.80
2019-04-10T05:17:41.571Z,8.90
2019-04-10T05:20:23.398Z,8.90
2019-04-10T05:23:06.241Z,8.90
2019-04-10T05:25:48.046Z,8.90
2019-04-10T05:28:29.954Z,8.80
2019-04-10T05:31:13.067Z,8.80
2019-04-10T05:33:55.331Z,8.80
2019-04-10T05:36:37.737Z,8.80
2019-04-10T05:39:19.524Z,8.90
2019-04-10T05:42:02.490Z,8.80
2019-04-10T05:44:44.667Z,8.70
2019-04-10T05:47:26.547Z,8.70
2019-04-10T05:50:08.463Z,8.70
2019-04-10T05:52:51.715Z,8.70
2019-04-10T05:55:34.335Z,8.70
2019-04-10T05:58:15.918Z,8.70
2019-04-10T06:00:59.371Z,8.70
2019-04-10T06:03:41.441Z,8.60
2019-04-10T06:06:24.224Z,8.50
2019-04-10T06:09:06.556Z,8.50
2019-04-10T06:11:48.993Z,8.60
2019-04-10T06:14:32.146Z,8.60
2019-04-10T06:17:14.402Z,8.70
2019-04-10T06:19:56.703Z,8.70
2019-04-10T06:22:38.877Z,8.60
2019-04-10T06:25:23.531Z,8.40
2019-04-10T06:28:05.312Z,8.40
2019-04-10T06:30:48.073Z,8.50
2019-04-10T06:33:18.211Z,8.50
2019-04-10T06:39:16.310Z,8.50
2019-04-10T06:42:24.950Z,8.50
2019-04-10T06:51:35.602Z,8.60
2019-04-10T07:00:48.623Z,8.80
2019-04-10T07:04:02.323Z,8.80
2019-04-10T07:07:11.341Z,8.80
2019-04-10T07:10:26.021Z,8.70
2019-04-10T07:13:26.254Z,8.60
2019-04-10T07:16:15.977Z,8.60
2019-04-10T07:22:43.630Z,8.50
2019-04-10T07:25:49.945Z,8.60
2019-04-10T07:28:58.950Z,8.80
2019-04-10T07:31:48.842Z,8.80
2019-04-10T07:34:40.305Z,8.80
2019-04-10T07:37:29.898Z,8.80
2019-04-10T07:47:38.076Z,8.90
2019-04-10T07:50:48.548Z,8.80
2019-04-10T07:53:18.930Z,8.80
2019-04-10T07:56:00.442Z,8.80
2019-04-10T07:58:40.038Z,8.90
2019-04-10T08:04:37.410Z,9.10
2019-04-10T08:07:47.296Z,9.00
2019-04-10T08:10:57.413Z,9.10
2019-04-10T08:14:08.409Z,9.00
2019-04-10T08:17:16.995Z,8.90
2019-04-10T08:20:26.516Z,8.80
2019-04-10T08:23:15.714Z,8.90
2019-04-10T08:26:05.719Z,8.80
2019-04-10T08:29:14.630Z,8.80
2019-04-10T08:32:03.738Z,8.80
2019-04-10T08:34:52.787Z,8.80
2019-04-10T08:37:34.866Z,8.90
2019-04-10T08:40:16.967Z,8.90
2019-04-10T08:42:59.949Z,9.10
2019-04-10T08:45:47.196Z,9.20
2019-04-10T08:48:27.600Z,9.10
2019-04-10T08:51:08.787Z,9.20
2019-04-10T08:53:50.844Z,9.10
2019-04-10T08:56:22.545Z,9.10
2019-04-10T09:02:44.695Z,9.20
2019-04-10T09:05:33.674Z,9.30
2019-04-10T09:08:23.122Z,9.20
2019-04-10T09:11:12.124Z,9.30
2019-04-10T09:17:15.379Z,9.20
2019-04-10T09:23:45.727Z,9.10
2019-04-10T09:26:48.748Z,9.20
2019-04-10T09:29:38.278Z,9.30
2019-04-10T09:35:57.159Z,9.30
2019-04-10T09:39:07.422Z,9.30
2019-04-10T09:41:56.528Z,9.40
2019-04-10T09:44:46.558Z,9.30
2019-04-10T09:47:55.829Z,9.40
2019-04-10T09:53:59.453Z,9.60
2019-04-10T09:57:09.123Z,9.70
2019-04-10T10:00:19.199Z,9.80
2019-04-10T10:06:25.179Z,9.70
2019-04-10T10:09:29.065Z,9.70
2019-04-10T10:12:36.524Z,9.60
2019-04-10T10:15:25.827Z,9.70
2019-04-10T10:18:15.087Z,9.80
2019-04-10T10:21:04.182Z,9.80
2019-04-10T10:23:34.026Z,9.60
2019-04-10T10:29:37.645Z,9.60
2019-04-10T10:32:46.940Z,9.60
2019-04-10T10:35:35.954Z,9.60
2019-04-10T10:38:17.729Z,9.60
2019-04-10T10:40:59.372Z,9.60
2019-04-10T10:43:41.072Z,9.70
2019-04-10T10:46:23.086Z,9.70
2019-04-10T10:49:04.611Z,9.70
2019-04-10T10:51:35.021Z,9.60
2019-04-10T10:54:45.176Z,9.50
2019-04-10T10:57:55.341Z,9.70
2019-04-10T11:01:05.314Z,9.90
2019-04-10T11:04:15.041Z,9.80
2019-04-10T11:07:24.563Z,9.80
2019-04-10T11:17:03.389Z,10.20
2019-04-10T11:20:12.732Z,10.00
2019-04-10T11:23:22.403Z,10.00
2019-04-10T11:26:14.047Z,10.00
2019-04-10T11:29:22.095Z,10.10
2019-04-10T11:32:14.388Z,10.40
2019-04-10T11:35:24.254Z,10.30
2019-04-10T11:38:13.537Z,10.30
2019-04-10T11:41:03.541Z,10.40
2019-04-10T11:44:15.981Z,10.30
2019-04-10T11:47:24.571Z,10.20
2019-04-10T11:50:34.801Z,10.20
2019-04-10T11:53:47.239Z,10.40
2019-04-10T12:00:20.498Z,10.60
2019-04-10T12:03:18.313Z,10.80
2019-04-10T12:12:51.472Z,10.80
2019-04-10T12:22:28.108Z,10.60
2019-04-10T12:25:17.354Z,10.60
2019-04-10T12:28:06.419Z,10.70
2019-04-10T12:30:37.364Z,10.70
2019-04-10T12:37:07.706Z,10.90
2019-04-10T12:39:57.132Z,10.80
2019-04-10T12:46:21.096Z,10.80
2019-04-10T12:49:10.086Z,10.80
2019-04-10T13:01:40.862Z,10.70
2019-04-10T13:04:50.960Z,10.60
2019-04-10T13:07:40.477Z,10.60
2019-04-10T13:13:44.248Z,10.80
2019-04-10T13:16:52.883Z,10.90
2019-04-10T13:19:22.908Z,11.00
2019-04-10T13:22:11.931Z,11.20
2019-04-10T13:24:42.163Z,11.30
2019-04-10T13:27:31.070Z,11.30
2019-04-10T13:30:20.718Z,11.30
2019-04-10T13:36:43.910Z,11.20
2019-04-10T13:39:46.590Z,11.20
2019-04-10T13:42:30.193Z,11.10
2019-04-10T13:45:11.503Z,11.10
2019-04-10T13:47:54.597Z,11.10
2019-04-10T13:50:36.950Z,11.10
2019-04-10T13:53:19.142Z,11.00
2019-04-10T13:56:01.828Z,11.20
2019-04-10T13:58:31.652Z,11.20
2019-04-10T14:01:39.922Z,11.20
2019-04-10T14:07:42.750Z,11.40
2019-04-10T14:17:01.698Z,11.20
2019-04-10T14:20:11.087Z,11.30
2019-04-10T14:26:55.144Z,11.30
2019-04-10T14:33:17.644Z,11.00
2019-04-10T14:36:07.567Z,10.90
2019-04-10T14:39:15.346Z,10.90
2019-04-10T14:41:54.032Z,10.90
2019-04-10T14:44:36.788Z,10.90
2019-04-10T14:47:19.165Z,10.80
2019-04-10T14:50:02.024Z,10.80
2019-04-10T14:52:43.481Z,10.80
2019-04-10T14:55:29.223Z,10.80
2019-04-10T14:58:20.447Z,10.70
2019-04-10T15:00:55.076Z,10.80
2019-04-10T15:03:36.861Z,10.90
2019-04-10T15:06:21.327Z,10.90
2019-04-10T15:09:04.110Z,10.90
2019-04-10T15:11:45.306Z,11.00
2019-04-10T15:14:15.506Z,11.00
2019-04-10T15:16:53.425Z,11.20
2019-04-10T15:19:18.416Z,11.10
2019-04-10T15:22:07.561Z,11.20
2019-04-10T15:24:57.402Z,11.10
2019-04-10T15:28:06.860Z,10.90
2019-04-10T15:37:23.026Z,10.70
2019-04-10T15:40:18.564Z,10.80
2019-04-10T15:46:35.926Z,10.80
2019-04-10T15:52:33.377Z,11.00
2019-04-10T15:58:52.021Z,11.00
2019-04-10T16:05:15.424Z,10.70
2019-04-10T16:14:33.291Z,10.80
2019-04-10T16:18:01.765Z,10.70
2019-04-10T16:20:51.324Z,10.80
2019-04-10T16:23:44.318Z,10.90
2019-04-10T16:26:33.620Z,10.70
2019-04-10T16:29:22.858Z,10.60
2019-04-10T16:35:27.387Z,10.40
2019-04-10T16:38:30.974Z,10.40
2019-04-10T16:41:13.572Z,10.40
2019-04-10T16:43:55.616Z,10.40
2019-04-10T16:46:38.336Z,10.40
2019-04-10T16:49:20.995Z,10.40
2019-04-10T16:52:02.913Z,10.40
2019-04-10T16:54:45.241Z,10.50
2019-04-10T16:57:26.869Z,10.40
2019-04-10T17:00:09.171Z,10.40
2019-04-10T17:02:50.654Z,10.50
2019-04-10T17:05:35.196Z,10.50
2019-04-10T17:08:17.104Z,10.60
2019-04-10T17:10:58.909Z,10.70
2019-04-10T17:13:42.580Z,10.80
2019-04-10T17:16:24.428Z,10.90
2019-04-10T17:19:07.616Z,10.90
2019-04-10T17:21:50.018Z,10.90
2019-04-10T17:24:31.881Z,10.90
2019-04-10T17:27:13.534Z,10.60
2019-04-10T17:29:56.556Z,10.50
2019-04-10T17:32:42.655Z,10.60
2019-04-10T17:35:24.575Z,10.70
2019-04-10T17:38:06.915Z,10.60
2019-04-10T17:40:52.991Z,10.60
2019-04-10T17:43:32.963Z,10.60
2019-04-10T17:46:15.277Z,10.60
2019-04-10T17:48:57.062Z,10.70
2019-04-10T17:51:39.056Z,10.60
2019-04-10T17:54:21.011Z,10.60
2019-04-10T17:57:02.586Z,10.60
2019-04-10T17:59:44.804Z,10.50
2019-04-10T18:02:15.734Z,10.50
2019-04-10T18:05:26.543Z,10.50
2019-04-10T18:08:36.723Z,10.50
2019-04-10T18:11:45.695Z,10.60
2019-04-10T18:14:55.530Z,10.60
2019-04-10T18:24:28.424Z,10.40
2019-04-10T18:37:15.969Z,10.10
2019-04-10T18:40:16.136Z,10.20
2019-04-10T18:42:58.107Z,10.10
2019-04-10T18:45:53.794Z,10.00
2019-04-10T18:48:24.902Z,10.00
2019-04-10T18:51:09.180Z,10.10
2019-04-10T18:53:51.219Z,10.20
2019-04-10T18:56:33.570Z,10.10
2019-04-10T18:59:23.461Z,10.00
2019-04-10T19:02:13.683Z,10.10
2019-04-10T19:07:38.445Z,10.00
2019-04-10T19:10:28.672Z,10.10
2019-04-10T19:13:17.834Z,10.00
2019-04-10T19:16:07.023Z,9.90
2019-04-10T19:25:20.984Z,9.90
2019-04-10T19:28:35.031Z,9.80
2019-04-10T19:34:37.190Z,10.00
2019-04-10T19:37:46.960Z,10.10
2019-04-10T19:40:49.182Z,10.10
2019-04-10T19:43:32.100Z,10.10
2019-04-10T19:46:15.383Z,10.10
2019-04-10T19:48:57.659Z,10.10
2019-04-10T19:51:39.174Z,10.20
2019-04-10T19:54:22.049Z,10.20
2019-04-10T19:57:04.726Z,10.20
2019-04-10T19:59:46.365Z,10.20
2019-04-10T20:02:27.956Z,10.10
2019-04-10T20:05:09.532Z,10.10
2019-04-10T20:07:51.835Z,10.00
2019-04-10T20:10:35.179Z,10.00
2019-04-10T20:13:18.614Z,10.00
2019-04-10T20:16:00.771Z,10.00
2019-04-10T20:18:43.209Z,10.00
2019-04-10T20:21:26.010Z,9.90
2019-04-10T20:24:08.200Z,9.90
2019-04-10T20:26:39.110Z,9.70
2019-04-10T20:29:47.892Z,9.50
2019-04-10T20:32:18.010Z,9.50
2019-04-10T20:35:07.791Z,9.50
2019-04-10T20:37:58.888Z,9.60
2019-04-10T20:41:00.470Z,9.60
2019-04-10T20:43:42.882Z,9.60
2019-04-10T20:46:24.887Z,9.60
2019-04-10T20:49:08.450Z,9.50
2019-04-10T20:51:38.378Z,9.40
2019-04-10T20:54:08.637Z,9.40
2019-04-10T20:56:57.635Z,9.50
2019-04-10T20:59:46.787Z,9.40
2019-04-10T21:05:50.682Z,9.40
2019-04-10T21:09:01.104Z,9.40
2019-04-10T21:12:13.181Z,9.40
2019-04-10T21:15:20.225Z,9.40
2019-04-10T21:18:09.242Z,9.40
2019-04-10T21:20:59.495Z,9.30
2019-04-10T21:30:54.533Z,9.20
2019-04-10T21:34:03.399Z,9.20
2019-04-10T21:36:53.342Z,9.20
2019-04-10T21:39:54.924Z,9.30
2019-04-10T21:42:37.087Z,9.20
2019-04-10T21:45:20.895Z,9.20
2019-04-10T21:48:02.667Z,9.20
2019-04-10T21:50:45.976Z,9.20
2019-04-10T21:53:28.653Z,9.10
2019-04-10T21:59:09.031Z,9.10
2019-04-10T22:09:06.071Z,8.90
2019-04-10T22:21:31.070Z,8.70
2019-04-10T22:24:40.716Z,8.70
2019-04-10T22:28:04.594Z,8.60
2019-04-10T22:31:04.004Z,8.60
2019-04-10T22:37:09.844Z,8.60
2019-04-10T22:40:11.333Z,8.50
2019-04-10T22:42:53.281Z,8.40
2019-04-10T22:45:36.019Z,8.40
2019-04-10T22:48:18.798Z,8.40
2019-04-10T22:54:21.958Z,8.30
2019-04-10T22:57:31.392Z,8.20
2019-04-10T23:03:55.111Z,8.10
2019-04-10T23:09:53.118Z,8.00
2019-04-10T23:12:52.018Z,8.00
2019-04-10T23:15:52.580Z,7.90
2019-04-10T23:18:43.524Z,7.90
2019-04-10T23:21:53.282Z,7.90
2019-04-10T23:27:57.408Z,7.90
2019-04-10T23:30:46.655Z,7.90
2019-04-10T23:33:36.490Z,7.70
2019-04-10T23:36:46.571Z,7.70
2019-04-10T23:39:56.607Z,7.60
2019-04-10T23:43:07.810Z,7.60
2019-04-10T23:45:41.997Z,7.40
2019-04-10T23:48:24.642Z,7.40
2019-04-10T23:51:07.072Z,7.20
2019-04-10T23:53:49.041Z,7.20
2019-04-10T23:56:31.523Z,7.20
